sensor_id;sensor_type;location;lat;lon;timestamp;pressure;altitude;pressure_sealevel;temperature;humidity
40788;BME280;26497;52.494;7.546;2023-01-08T00:01:04;99753.00;;;14.80;59.43
40788;BME280;26497;52.494;7.546;2023-01-08T00:03:33;99742.72;;;14.97;58.67
40788;BME280;26497;52.494;7.546;2023-01-08T00:06:01;99746.63;;;14.85;59.20
40788;BME280;26497;52.494;7.546;2023-01-08T00:08:29;99745.34;;;14.69;59.85
40788;BME280;26497;52.494;7.546;2023-01-08T00:10:57;99750.38;;;14.78;60.03
40788;BME280;26497;52.494;7.546;2023-01-08T00:13:24;99752.75;;;14.87;59.38
40788;BME280;26497;52.494;7.546;2023-01-08T00:15:52;99741.50;;;14.79;59.42
40788;BME280;26497;52.494;7.546;2023-01-08T00:18:19;99743.44;;;14.74;59.79
40788;BME280;26497;52.494;7.546;2023-01-08T00:20:47;99742.28;;;14.83;59.48
40788;BME280;26497;52.494;7.546;2023-01-08T00:23:16;99735.09;;;14.86;59.14
40788;BME280;26497;52.494;7.546;2023-01-08T00:25:43;99736.75;;;14.60;60.19
40788;BME280;26497;52.494;7.546;2023-01-08T00:28:10;99738.38;;;14.38;61.15
40788;BME280;26497;52.494;7.546;2023-01-08T00:30:39;99735.00;;;14.61;60.43
40788;BME280;26497;52.494;7.546;2023-01-08T00:33:06;99724.78;;;14.77;59.80
40788;BME280;26497;52.494;7.546;2023-01-08T00:35:33;99722.81;;;14.55;60.59
40788;BME280;26497;52.494;7.546;2023-01-08T00:38:02;99723.75;;;14.53;60.84
40788;BME280;26497;52.494;7.546;2023-01-08T00:40:29;99716.63;;;14.55;60.92
40788;BME280;26497;52.494;7.546;2023-01-08T00:42:55;99726.38;;;14.54;60.90
40788;BME280;26497;52.494;7.546;2023-01-08T00:45:22;99712.22;;;14.54;61.05
40788;BME280;26497;52.494;7.546;2023-01-08T00:47:50;99707.94;;;14.50;61.14
40788;BME280;26497;52.494;7.546;2023-01-08T00:50:17;99705.81;;;14.61;61.02
40788;BME280;26497;52.494;7.546;2023-01-08T00:52:44;99692.84;;;14.23;62.51
40788;BME280;26497;52.494;7.546;2023-01-08T00:55:13;99693.28;;;14.38;62.59
40788;BME280;26497;52.494;7.546;2023-01-08T00:57:40;99686.88;;;14.73;61.12
40788;BME280;26497;52.494;7.546;2023-01-08T01:00:12;99684.59;;;14.59;61.49
40788;BME280;26497;52.494;7.546;2023-01-08T01:02:40;99698.22;;;14.50;61.79
40788;BME280;26497;52.494;7.546;2023-01-08T01:05:08;99688.75;;;14.41;62.15
40788;BME280;26497;52.494;7.546;2023-01-08T01:07:36;99691.69;;;14.32;62.72
40788;BME280;26497;52.494;7.546;2023-01-08T01:10:03;99708.50;;;14.31;62.70
40788;BME280;26497;52.494;7.546;2023-01-08T01:12:32;99702.34;;;14.59;61.78
40788;BME280;26497;52.494;7.546;2023-01-08T01:14:59;99704.66;;;14.41;62.21
40788;BME280;26497;52.494;7.546;2023-01-08T01:17:26;99687.03;;;14.67;61.30
40788;BME280;26497;52.494;7.546;2023-01-08T01:19:53;99688.75;;;14.41;62.28
40788;BME280;26497;52.494;7.546;2023-01-08T01:22:20;99692.84;;;14.52;61.95
40788;BME280;26497;52.494;7.546;2023-01-08T01:24:47;99685.69;;;14.54;61.66
40788;BME280;26497;52.494;7.546;2023-01-08T01:27:14;99668.84;;;14.55;61.83
40788;BME280;26497;52.494;7.546;2023-01-08T01:29:42;99670.88;;;14.47;62.22
40788;BME280;26497;52.494;7.546;2023-01-08T01:32:09;99675.78;;;14.32;62.55
40788;BME280;26497;52.494;7.546;2023-01-08T01:34:36;99674.66;;;14.39;62.34
40788;BME280;26497;52.494;7.546;2023-01-08T01:37:03;99666.59;;;14.42;62.30
40788;BME280;26497;52.494;7.546;2023-01-08T01:39:32;99672.78;;;14.14;63.50
40788;BME280;26497;52.494;7.546;2023-01-08T01:41:59;99675.00;;;14.28;63.35
40788;BME280;26497;52.494;7.546;2023-01-08T01:44:39;99663.91;;;14.44;62.75
40788;BME280;26497;52.494;7.546;2023-01-08T01:47:19;99672.50;;;14.52;62.44
40788;BME280;26497;52.494;7.546;2023-01-08T01:49:54;99668.59;;;14.63;61.92
40788;BME280;26497;52.494;7.546;2023-01-08T01:52:24;99666.81;;;14.63;62.23
40788;BME280;26497;52.494;7.546;2023-01-08T01:54:54;99681.03;;;14.60;61.75
40788;BME280;26497;52.494;7.546;2023-01-08T01:57:23;99682.66;;;14.66;61.81
40788;BME280;26497;52.494;7.546;2023-01-08T01:59:52;99674.00;;;14.88;61.16
40788;BME280;26497;52.494;7.546;2023-01-08T02:02:22;99674.69;;;14.66;61.77
40788;BME280;26497;52.494;7.546;2023-01-08T02:04:49;99663.19;;;14.66;61.74
40788;BME280;26497;52.494;7.546;2023-01-08T02:07:22;99671.56;;;14.53;62.12
40788;BME280;26497;52.494;7.546;2023-01-08T02:09:55;99672.06;;;14.38;62.72
40788;BME280;26497;52.494;7.546;2023-01-08T02:12:32;99672.00;;;14.39;62.84
40788;BME280;26497;52.494;7.546;2023-01-08T02:15:08;99672.81;;;14.41;62.78
40788;BME280;26497;52.494;7.546;2023-01-08T02:17:50;99682.16;;;14.26;63.26
40788;BME280;26497;52.494;7.546;2023-01-08T02:20:22;99676.25;;;14.16;63.62
40788;BME280;26497;52.494;7.546;2023-01-08T02:23:10;99659.41;;;14.18;63.61
40788;BME280;26497;52.494;7.546;2023-01-08T02:26:14;99661.63;;;14.03;64.21
40788;BME280;26497;52.494;7.546;2023-01-08T02:28:47;99680.28;;;14.00;64.30
40788;BME280;26497;52.494;7.546;2023-01-08T02:31:15;99669.66;;;14.01;64.42
40788;BME280;26497;52.494;7.546;2023-01-08T02:33:43;99682.72;;;14.08;63.90
40788;BME280;26497;52.494;7.546;2023-01-08T02:36:31;99675.13;;;14.24;63.55
40788;BME280;26497;52.494;7.546;2023-01-08T02:39:15;99670.28;;;14.10;63.82
40788;BME280;26497;52.494;7.546;2023-01-08T02:42:01;99665.44;;;14.23;63.51
40788;BME280;26497;52.494;7.546;2023-01-08T02:47:28;99662.22;;;14.41;62.66
40788;BME280;26497;52.494;7.546;2023-01-08T02:50:11;99656.72;;;14.48;62.54
40788;BME280;26497;52.494;7.546;2023-01-08T02:52:48;99664.75;;;14.44;62.58
40788;BME280;26497;52.494;7.546;2023-01-08T02:55:16;99661.50;;;14.63;61.62
40788;BME280;26497;52.494;7.546;2023-01-08T02:57:46;99658.50;;;14.47;61.93
40788;BME280;26497;52.494;7.546;2023-01-08T03:00:14;99658.94;;;14.33;62.44
40788;BME280;26497;52.494;7.546;2023-01-08T03:02:42;99655.47;;;14.31;62.80
40788;BME280;26497;52.494;7.546;2023-01-08T03:05:18;99654.56;;;14.32;62.93
40788;BME280;26497;52.494;7.546;2023-01-08T03:07:47;99645.09;;;14.52;62.04
40788;BME280;26497;52.494;7.546;2023-01-08T03:10:15;99646.19;;;14.44;62.59
40788;BME280;26497;52.494;7.546;2023-01-08T03:12:49;99645.09;;;14.52;61.92
40788;BME280;26497;52.494;7.546;2023-01-08T03:15:24;99643.03;;;14.33;62.45
40788;BME280;26497;52.494;7.546;2023-01-08T03:17:57;99632.44;;;14.60;61.62
40788;BME280;26497;52.494;7.546;2023-01-08T03:20:26;99631.41;;;14.64;61.36
40788;BME280;26497;52.494;7.546;2023-01-08T03:22:56;99628.66;;;14.40;62.27
40788;BME280;26497;52.494;7.546;2023-01-08T03:25:27;99625.78;;;14.47;62.07
40788;BME280;26497;52.494;7.546;2023-01-08T03:28:02;99620.47;;;14.48;62.00
40788;BME280;26497;52.494;7.546;2023-01-08T03:30:30;99628.09;;;14.57;61.64
40788;BME280;26497;52.494;7.546;2023-01-08T03:32:59;99622.63;;;14.35;62.50
40788;BME280;26497;52.494;7.546;2023-01-08T03:35:27;99614.78;;;14.32;62.58
40788;BME280;26497;52.494;7.546;2023-01-08T03:38:02;99607.72;;;14.31;62.63
40788;BME280;26497;52.494;7.546;2023-01-08T03:40:35;99616.50;;;14.60;61.85
40788;BME280;26497;52.494;7.546;2023-01-08T03:43:06;99615.50;;;14.64;61.63
40788;BME280;26497;52.494;7.546;2023-01-08T03:45:36;99599.34;;;14.45;62.17
40788;BME280;26497;52.494;7.546;2023-01-08T03:48:05;99607.31;;;14.16;63.27
40788;BME280;26497;52.494;7.546;2023-01-08T03:50:33;99609.47;;;14.32;62.91
40788;BME280;26497;52.494;7.546;2023-01-08T03:53:00;99612.03;;;14.62;61.39
40788;BME280;26497;52.494;7.546;2023-01-08T03:55:27;99600.19;;;14.45;61.93
40788;BME280;26497;52.494;7.546;2023-01-08T03:57:54;99597.91;;;14.35;62.35
40788;BME280;26497;52.494;7.546;2023-01-08T04:00:22;99599.03;;;14.54;61.75
40788;BME280;26497;52.494;7.546;2023-01-08T04:02:49;99593.94;;;14.48;62.05
40788;BME280;26497;52.494;7.546;2023-01-08T04:05:16;99591.59;;;14.64;61.38
40788;BME280;26497;52.494;7.546;2023-01-08T04:07:43;99592.84;;;14.54;61.61
40788;BME280;26497;52.494;7.546;2023-01-08T04:10:10;99590.78;;;14.37;62.43
40788;BME280;26497;52.494;7.546;2023-01-08T04:12:39;99589.69;;;14.68;61.44
40788;BME280;26497;52.494;7.546;2023-01-08T04:15:07;99592.25;;;14.72;61.29
40788;BME280;26497;52.494;7.546;2023-01-08T04:17:36;99588.88;;;14.93;60.37
40788;BME280;26497;52.494;7.546;2023-01-08T04:20:05;99583.56;;;14.93;60.08
40788;BME280;26497;52.494;7.546;2023-01-08T04:22:32;99574.16;;;14.84;60.33
40788;BME280;26497;52.494;7.546;2023-01-08T04:24:59;99580.38;;;14.56;61.27
40788;BME280;26497;52.494;7.546;2023-01-08T04:27:26;99587.75;;;14.74;60.96
40788;BME280;26497;52.494;7.546;2023-01-08T04:29:53;99570.00;;;14.77;60.42
40788;BME280;26497;52.494;7.546;2023-01-08T04:32:20;99568.84;;;14.57;61.09
40788;BME280;26497;52.494;7.546;2023-01-08T04:34:48;99573.34;;;14.82;60.63
40788;BME280;26497;52.494;7.546;2023-01-08T04:37:15;99557.25;;;14.59;61.06
40788;BME280;26497;52.494;7.546;2023-01-08T04:39:42;99569.19;;;14.74;60.88
40788;BME280;26497;52.494;7.546;2023-01-08T04:42:09;99555.50;;;14.60;60.88
40788;BME280;26497;52.494;7.546;2023-01-08T04:44:36;99559.78;;;14.37;61.93
40788;BME280;26497;52.494;7.546;2023-01-08T04:47:03;99553.13;;;14.52;61.63
40788;BME280;26497;52.494;7.546;2023-01-08T04:49:30;99563.16;;;14.68;61.06
40788;BME280;26497;52.494;7.546;2023-01-08T04:51:58;99558.69;;;14.70;60.69
40788;BME280;26497;52.494;7.546;2023-01-08T04:54:25;99557.03;;;14.66;60.80
40788;BME280;26497;52.494;7.546;2023-01-08T04:56:52;99546.50;;;14.64;60.94
40788;BME280;26497;52.494;7.546;2023-01-08T04:59:19;99545.44;;;14.70;60.62
40788;BME280;26497;52.494;7.546;2023-01-08T05:01:46;99551.63;;;14.70;60.43
40788;BME280;26497;52.494;7.546;2023-01-08T05:04:13;99543.03;;;14.62;60.96
40788;BME280;26497;52.494;7.546;2023-01-08T05:06:40;99540.81;;;14.50;61.45
40788;BME280;26497;52.494;7.546;2023-01-08T05:09:09;99538.19;;;14.75;60.82
40788;BME280;26497;52.494;7.546;2023-01-08T05:11:36;99538.94;;;14.53;61.17
40788;BME280;26497;52.494;7.546;2023-01-08T05:14:03;99537.91;;;14.57;61.14
40788;BME280;26497;52.494;7.546;2023-01-08T05:16:30;99526.63;;;14.51;61.57
40788;BME280;26497;52.494;7.546;2023-01-08T05:18:58;99532.22;;;14.68;61.58
40788;BME280;26497;52.494;7.546;2023-01-08T05:21:25;99528.88;;;14.62;62.49
40788;BME280;26497;52.494;7.546;2023-01-08T05:23:52;99537.75;;;14.35;64.40
40788;BME280;26497;52.494;7.546;2023-01-08T05:26:20;99581.97;;;14.08;67.88
40788;BME280;26497;52.494;7.546;2023-01-08T05:28:47;99583.09;;;13.72;69.67
40788;BME280;26497;52.494;7.546;2023-01-08T05:31:15;99579.53;;;13.11;70.78
40788;BME280;26497;52.494;7.546;2023-01-08T05:33:43;99578.00;;;13.03;70.57
40788;BME280;26497;52.494;7.546;2023-01-08T05:36:11;99564.59;;;13.09;70.11
40788;BME280;26497;52.494;7.546;2023-01-08T05:38:39;99564.59;;;13.09;70.08
40788;BME280;26497;52.494;7.546;2023-01-08T05:41:07;99561.94;;;13.09;70.19
40788;BME280;26497;52.494;7.546;2023-01-08T05:43:36;99552.69;;;12.92;70.71
40788;BME280;26497;52.494;7.546;2023-01-08T05:46:04;99553.44;;;12.97;70.63
40788;BME280;26497;52.494;7.546;2023-01-08T05:48:34;99549.81;;;12.68;71.35
40788;BME280;26497;52.494;7.546;2023-01-08T05:51:02;99550.38;;;12.80;70.98
40788;BME280;26497;52.494;7.546;2023-01-08T05:53:29;99557.50;;;12.78;70.64
40788;BME280;26497;52.494;7.546;2023-01-08T05:55:59;99556.41;;;12.85;70.43
40788;BME280;26497;52.494;7.546;2023-01-08T05:58:26;99563.34;;;12.89;69.93
40788;BME280;26497;52.494;7.546;2023-01-08T06:01:01;99556.25;;;12.91;70.20
40788;BME280;26497;52.494;7.546;2023-01-08T06:03:28;99546.03;;;13.10;68.79
40788;BME280;26497;52.494;7.546;2023-01-08T06:05:58;99552.44;;;13.02;68.92
40788;BME280;26497;52.494;7.546;2023-01-08T06:08:26;99559.19;;;13.13;68.31
40788;BME280;26497;52.494;7.546;2023-01-08T06:10:53;99560.13;;;13.11;68.13
40788;BME280;26497;52.494;7.546;2023-01-08T06:13:20;99536.94;;;12.88;67.88
40788;BME280;26497;52.494;7.546;2023-01-08T06:15:47;99532.31;;;12.96;68.01
40788;BME280;26497;52.494;7.546;2023-01-08T06:18:15;99535.06;;;12.91;67.79
40788;BME280;26497;52.494;7.546;2023-01-08T06:20:43;99537.25;;;13.08;67.05
40788;BME280;26497;52.494;7.546;2023-01-08T06:23:10;99538.94;;;13.11;66.61
40788;BME280;26497;52.494;7.546;2023-01-08T06:25:37;99545.66;;;12.91;67.20
40788;BME280;26497;52.494;7.546;2023-01-08T06:28:04;99551.19;;;12.83;67.46
40788;BME280;26497;52.494;7.546;2023-01-08T06:30:31;99541.84;;;13.02;66.64
40788;BME280;26497;52.494;7.546;2023-01-08T06:33:00;99539.19;;;13.02;66.40
40788;BME280;26497;52.494;7.546;2023-01-08T06:35:28;99541.53;;;12.81;67.09
40788;BME280;26497;52.494;7.546;2023-01-08T06:37:55;99541.53;;;12.81;67.32
40788;BME280;26497;52.494;7.546;2023-01-08T06:40:23;99536.16;;;12.84;67.17
40788;BME280;26497;52.494;7.546;2023-01-08T06:42:50;99538.69;;;12.89;66.82
40788;BME280;26497;52.494;7.546;2023-01-08T06:45:17;99535.81;;;12.96;66.49
40788;BME280;26497;52.494;7.546;2023-01-08T06:47:44;99530.53;;;12.96;66.42
40788;BME280;26497;52.494;7.546;2023-01-08T06:50:11;99531.44;;;12.95;66.52
40788;BME280;26497;52.494;7.546;2023-01-08T06:52:39;99529.53;;;13.01;66.06
40788;BME280;26497;52.494;7.546;2023-01-08T06:55:08;99527.47;;;12.79;66.96
40788;BME280;26497;52.494;7.546;2023-01-08T06:57:35;99523.72;;;12.88;66.87
40788;BME280;26497;52.494;7.546;2023-01-08T07:00:06;99520.56;;;13.06;66.10
40788;BME280;26497;52.494;7.546;2023-01-08T07:02:33;99521.75;;;12.94;66.20
40788;BME280;26497;52.494;7.546;2023-01-08T07:05:00;99529.78;;;12.91;66.32
40788;BME280;26497;52.494;7.546;2023-01-08T07:07:27;99533.06;;;13.01;65.91
40788;BME280;26497;52.494;7.546;2023-01-08T07:09:55;99532.81;;;13.09;65.69
40788;BME280;26497;52.494;7.546;2023-01-08T07:12:23;99533.56;;;13.14;65.48
40788;BME280;26497;52.494;7.546;2023-01-08T07:14:50;99537.38;;;13.04;65.92
40788;BME280;26497;52.494;7.546;2023-01-08T07:17:17;99538.09;;;13.10;65.94
40788;BME280;26497;52.494;7.546;2023-01-08T07:19:44;99543.72;;;12.98;66.28
40788;BME280;26497;52.494;7.546;2023-01-08T07:22:11;99546.53;;;12.92;66.54
40788;BME280;26497;52.494;7.546;2023-01-08T07:24:38;99544.72;;;12.94;66.70
40788;BME280;26497;52.494;7.546;2023-01-08T07:27:06;99551.53;;;13.03;66.40
40788;BME280;26497;52.494;7.546;2023-01-08T07:29:33;99554.59;;;12.87;67.16
40788;BME280;26497;52.494;7.546;2023-01-08T07:32:00;99557.50;;;12.78;67.44
40788;BME280;26497;52.494;7.546;2023-01-08T07:34:28;99552.91;;;12.85;67.35
40788;BME280;26497;52.494;7.546;2023-01-08T07:36:55;99556.34;;;12.88;67.12
40788;BME280;26497;52.494;7.546;2023-01-08T07:39:22;99552.56;;;12.97;67.05
40788;BME280;26497;52.494;7.546;2023-01-08T07:41:49;99552.50;;;13.00;66.68
40788;BME280;26497;52.494;7.546;2023-01-08T07:44:17;99559.69;;;12.95;67.12
40788;BME280;26497;52.494;7.546;2023-01-08T07:46:44;99553.75;;;12.85;67.34
40788;BME280;26497;52.494;7.546;2023-01-08T07:49:11;99551.50;;;13.04;66.83
40788;BME280;26497;52.494;7.546;2023-01-08T07:51:38;99552.66;;;12.94;66.88
40788;BME280;26497;52.494;7.546;2023-01-08T07:54:05;99564.84;;;13.00;66.99
40788;BME280;26497;52.494;7.546;2023-01-08T07:56:33;99557.06;;;12.93;67.34
40788;BME280;26497;52.494;7.546;2023-01-08T07:59:00;99549.34;;;13.17;66.43
40788;BME280;26497;52.494;7.546;2023-01-08T08:01:28;99529.50;;;13.02;66.86
40788;BME280;26497;52.494;7.546;2023-01-08T08:03:55;99545.69;;;13.21;66.26
40788;BME280;26497;52.494;7.546;2023-01-08T08:06:22;99544.78;;;13.22;65.92
40788;BME280;26497;52.494;7.546;2023-01-08T08:08:49;99548.19;;;13.26;65.55
40788;BME280;26497;52.494;7.546;2023-01-08T08:11:16;99543.47;;;13.07;65.86
40788;BME280;26497;52.494;7.546;2023-01-08T08:13:43;99544.53;;;13.32;65.30
40788;BME280;26497;52.494;7.546;2023-01-08T08:16:12;99546.84;;;13.44;64.36
40788;BME280;26497;52.494;7.546;2023-01-08T08:18:40;99545.66;;;13.54;63.86
40788;BME280;26497;52.494;7.546;2023-01-08T08:21:07;99551.22;;;13.45;63.47
40788;BME280;26497;52.494;7.546;2023-01-08T08:23:34;99547.50;;;13.21;63.39
40788;BME280;26497;52.494;7.546;2023-01-08T08:26:02;99551.56;;;13.33;63.16
40788;BME280;26497;52.494;7.546;2023-01-08T08:28:30;99547.31;;;13.57;61.99
40788;BME280;26497;52.494;7.546;2023-01-08T08:30:57;99546.66;;;13.50;61.91
40788;BME280;26497;52.494;7.546;2023-01-08T08:33:24;99546.59;;;13.52;61.77
40788;BME280;26497;52.494;7.546;2023-01-08T08:35:52;99544.63;;;13.59;61.22
40788;BME280;26497;52.494;7.546;2023-01-08T08:38:19;99541.28;;;13.52;61.21
40788;BME280;26497;52.494;7.546;2023-01-08T08:40:46;99548.81;;;13.36;61.78
40788;BME280;26497;52.494;7.546;2023-01-08T08:43:13;99537.78;;;13.51;61.06
40788;BME280;26497;52.494;7.546;2023-01-08T08:45:40;99531.13;;;13.36;60.99
40788;BME280;26497;52.494;7.546;2023-01-08T08:48:07;99528.09;;;13.20;61.67
40788;BME280;26497;52.494;7.546;2023-01-08T08:50:36;99520.81;;;13.27;61.40
40788;BME280;26497;52.494;7.546;2023-01-08T08:53:05;99517.97;;;13.33;60.87
40788;BME280;26497;52.494;7.546;2023-01-08T08:55:33;99521.31;;;13.10;61.71
40788;BME280;26497;52.494;7.546;2023-01-08T08:58:06;99520.66;;;13.03;62.13
40788;BME280;26497;52.494;7.546;2023-01-08T09:00:36;99521.03;;;12.89;62.97
40788;BME280;26497;52.494;7.546;2023-01-08T09:03:03;99515.91;;;12.83;63.61
40788;BME280;26497;52.494;7.546;2023-01-08T09:05:30;99523.06;;;12.79;63.97
40788;BME280;26497;52.494;7.546;2023-01-08T09:07:57;99522.53;;;12.66;64.51
40788;BME280;26497;52.494;7.546;2023-01-08T09:10:25;99526.06;;;12.65;64.69
40788;BME280;26497;52.494;7.546;2023-01-08T09:12:53;99521.91;;;12.57;65.22
40788;BME280;26497;52.494;7.546;2023-01-08T09:15:20;99528.13;;;12.56;65.65
40788;BME280;26497;52.494;7.546;2023-01-08T09:17:52;99530.50;;;12.65;65.77
40788;BME280;26497;52.494;7.546;2023-01-08T09:20:20;99532.63;;;12.52;66.40
40788;BME280;26497;52.494;7.546;2023-01-08T09:22:47;99535.06;;;12.60;66.13
40788;BME280;26497;52.494;7.546;2023-01-08T09:25:14;99537.03;;;12.85;65.33
40788;BME280;26497;52.494;7.546;2023-01-08T09:27:43;99539.38;;;12.95;64.66
40788;BME280;26497;52.494;7.546;2023-01-08T09:30:11;99544.97;;;13.16;63.55
40788;BME280;26497;52.494;7.546;2023-01-08T09:32:38;99542.66;;;13.04;63.08
40788;BME280;26497;52.494;7.546;2023-01-08T09:35:06;99549.69;;;13.05;63.47
40788;BME280;26497;52.494;7.546;2023-01-08T09:37:33;99542.28;;;13.18;62.33
40788;BME280;26497;52.494;7.546;2023-01-08T09:40:00;99536.34;;;13.09;62.46
40788;BME280;26497;52.494;7.546;2023-01-08T09:42:28;99536.91;;;13.21;61.88
40788;BME280;26497;52.494;7.546;2023-01-08T09:44:58;99531.28;;;13.32;61.19
40788;BME280;26497;52.494;7.546;2023-01-08T09:47:31;99541.97;;;13.28;60.65
40788;BME280;26497;52.494;7.546;2023-01-08T09:50:01;99535.75;;;13.30;59.73
40788;BME280;26497;52.494;7.546;2023-01-08T09:52:29;99537.00;;;13.18;60.16
40788;BME280;26497;52.494;7.546;2023-01-08T09:54:57;99523.69;;;13.19;58.60
40788;BME280;26497;52.494;7.546;2023-01-08T09:57:24;99520.25;;;13.47;57.70
40788;BME280;26497;52.494;7.546;2023-01-08T09:59:52;99513.03;;;13.52;57.63
40788;BME280;26497;52.494;7.546;2023-01-08T10:02:22;99514.78;;;13.53;56.62
40788;BME280;26497;52.494;7.546;2023-01-08T10:04:54;99510.94;;;13.64;55.96
40788;BME280;26497;52.494;7.546;2023-01-08T10:07:24;99517.22;;;13.60;55.89
40788;BME280;26497;52.494;7.546;2023-01-08T10:09:52;99522.03;;;13.47;55.52
40788;BME280;26497;52.494;7.546;2023-01-08T10:12:26;99514.31;;;13.96;54.85
40788;BME280;26497;52.494;7.546;2023-01-08T10:14:55;99513.28;;;13.73;54.26
40788;BME280;26497;52.494;7.546;2023-01-08T10:17:30;99509.69;;;13.46;54.54
40788;BME280;26497;52.494;7.546;2023-01-08T10:20:07;99513.72;;;13.88;54.27
40788;BME280;26497;52.494;7.546;2023-01-08T10:22:35;99509.88;;;14.23;53.29
40788;BME280;26497;52.494;7.546;2023-01-08T10:25:07;99500.28;;;14.71;51.27
40788;BME280;26497;52.494;7.546;2023-01-08T10:27:45;99496.09;;;15.13;49.45
40788;BME280;26497;52.494;7.546;2023-01-08T10:30:18;99495.75;;;15.23;49.34
40788;BME280;26497;52.494;7.546;2023-01-08T10:32:52;99491.25;;;15.47;48.23
40788;BME280;26497;52.494;7.546;2023-01-08T10:35:32;99486.88;;;15.46;47.82
40788;BME280;26497;52.494;7.546;2023-01-08T10:38:02;99497.03;;;15.81;46.65
40788;BME280;26497;52.494;7.546;2023-01-08T10:40:35;99496.09;;;16.04;46.42
40788;BME280;26497;52.494;7.546;2023-01-08T10:43:14;99499.44;;;16.09;46.45
40788;BME280;26497;52.494;7.546;2023-01-08T10:45:43;99505.13;;;16.43;45.54
40788;BME280;26497;52.494;7.546;2023-01-08T10:48:22;99495.72;;;16.13;44.82
40788;BME280;26497;52.494;7.546;2023-01-08T10:50:51;99488.19;;;16.23;45.28
40788;BME280;26497;52.494;7.546;2023-01-08T10:53:29;99480.75;;;16.31;44.73
40788;BME280;26497;52.494;7.546;2023-01-08T10:55:59;99488.41;;;16.18;45.92
40788;BME280;26497;52.494;7.546;2023-01-08T10:58:27;99478.91;;;16.33;45.87
40788;BME280;26497;52.494;7.546;2023-01-08T11:00:55;99472.47;;;16.39;44.90
40788;BME280;26497;52.494;7.546;2023-01-08T11:03:35;99470.97;;;15.90;46.47
40788;BME280;26497;52.494;7.546;2023-01-08T11:06:11;99478.22;;;15.85;47.59
40788;BME280;26497;52.494;7.546;2023-01-08T11:08:39;99471.13;;;16.08;47.16
40788;BME280;26497;52.494;7.546;2023-01-08T11:11:15;99452.09;;;15.97;46.92
40788;BME280;26497;52.494;7.546;2023-01-08T11:13:55;99457.31;;;16.20;47.42
40788;BME280;26497;52.494;7.546;2023-01-08T11:16:31;99457.56;;;16.35;46.77
40788;BME280;26497;52.494;7.546;2023-01-08T11:19:00;99447.59;;;16.19;46.39
40788;BME280;26497;52.494;7.546;2023-01-08T11:21:30;99445.22;;;15.91;47.69
40788;BME280;26497;52.494;7.546;2023-01-08T11:24:14;99444.38;;;15.90;48.20
40788;BME280;26497;52.494;7.546;2023-01-08T11:26:48;99441.00;;;15.87;48.45
40788;BME280;26497;52.494;7.546;2023-01-08T11:29:23;99441.34;;;15.55;49.05
40788;BME280;26497;52.494;7.546;2023-01-08T11:31:58;99433.31;;;15.57;48.88
40788;BME280;26497;52.494;7.546;2023-01-08T11:34:38;99422.31;;;15.66;49.13
40788;BME280;26497;52.494;7.546;2023-01-08T11:37:17;99414.38;;;15.65;50.22
40788;BME280;26497;52.494;7.546;2023-01-08T11:39:45;99415.94;;;15.26;50.80
40788;BME280;26497;52.494;7.546;2023-01-08T11:42:27;99418.47;;;15.29;52.21
40788;BME280;26497;52.494;7.546;2023-01-08T11:45:13;99411.94;;;15.60;50.92
40788;BME280;26497;52.494;7.546;2023-01-08T11:47:56;99407.16;;;15.68;50.80
40788;BME280;26497;52.494;7.546;2023-01-08T11:50:28;99411.31;;;15.75;51.20
40788;BME280;26497;52.494;7.546;2023-01-08T11:53:14;99400.25;;;15.64;50.05
40788;BME280;26497;52.494;7.546;2023-01-08T11:55:54;99403.28;;;15.55;51.59
40788;BME280;26497;52.494;7.546;2023-01-08T11:58:40;99403.72;;;15.66;51.15
40788;BME280;26497;52.494;7.546;2023-01-08T12:01:32;99400.31;;;15.62;50.97
40788;BME280;26497;52.494;7.546;2023-01-08T12:07:29;99387.78;;;16.07;50.43
40788;BME280;26497;52.494;7.546;2023-01-08T12:10:08;99380.97;;;16.02;50.43
40788;BME280;26497;52.494;7.546;2023-01-08T12:12:49;99382.75;;;16.01;49.98
40788;BME280;26497;52.494;7.546;2023-01-08T12:15:29;99370.50;;;15.97;50.11
40788;BME280;26497;52.494;7.546;2023-01-08T12:18:43;99375.66;;;16.02;50.85
40788;BME280;26497;52.494;7.546;2023-01-08T12:21:16;99368.22;;;16.69;48.89
40788;BME280;26497;52.494;7.546;2023-01-08T12:24:04;99357.94;;;17.19;47.79
40788;BME280;26497;52.494;7.546;2023-01-08T12:26:51;99341.97;;;17.36;46.55
40788;BME280;26497;52.494;7.546;2023-01-08T12:29:41;99349.09;;;16.80;46.87
40788;BME280;26497;52.494;7.546;2023-01-08T12:32:29;99346.28;;;16.05;49.08
40788;BME280;26497;52.494;7.546;2023-01-08T12:35:08;99341.84;;;15.62;49.82
40788;BME280;26497;52.494;7.546;2023-01-08T12:37:43;99353.28;;;15.65;50.62
40788;BME280;26497;52.494;7.546;2023-01-08T12:40:21;99347.25;;;15.39;50.74
40788;BME280;26497;52.494;7.546;2023-01-08T12:42:49;99349.84;;;14.96;52.43
40788;BME280;26497;52.494;7.546;2023-01-08T12:45:21;99342.88;;;14.93;52.99
40788;BME280;26497;52.494;7.546;2023-01-08T12:47:55;99342.16;;;15.12;53.28
40788;BME280;26497;52.494;7.546;2023-01-08T12:50:45;99345.09;;;15.04;54.07
40788;BME280;26497;52.494;7.546;2023-01-08T12:53:22;99339.78;;;15.04;55.09
40788;BME280;26497;52.494;7.546;2023-01-08T12:56:02;99337.94;;;14.60;56.06
40788;BME280;26497;52.494;7.546;2023-01-08T12:58:43;99321.91;;;14.63;55.92
40788;BME280;26497;52.494;7.546;2023-01-08T13:01:26;99323.88;;;14.58;55.98
40788;BME280;26497;52.494;7.546;2023-01-08T13:03:57;99329.66;;;14.92;55.69
40788;BME280;26497;52.494;7.546;2023-01-08T13:06:25;99321.84;;;15.11;55.14
40788;BME280;26497;52.494;7.546;2023-01-08T13:08:55;99316.28;;;15.17;55.19
40788;BME280;26497;52.494;7.546;2023-01-08T13:11:27;99314.06;;;15.06;55.42
40788;BME280;26497;52.494;7.546;2023-01-08T13:14:03;99308.09;;;14.77;57.19
40788;BME280;26497;52.494;7.546;2023-01-08T13:16:35;99315.72;;;14.63;57.85
40788;BME280;26497;52.494;7.546;2023-01-08T13:19:04;99316.44;;;14.44;59.97
40788;BME280;26497;52.494;7.546;2023-01-08T13:21:35;99308.53;;;14.42;60.36
40788;BME280;26497;52.494;7.546;2023-01-08T13:24:20;99312.22;;;14.14;61.19